sensor_id;sensor_type;location;lat;lon;timestamp;pressure;altitude;pressure_sealevel;temperature;humidity
43804;BME280;29430;52.924;-2.388;2022-10-17T00:00:14;98171.81;;;13.47;100.00
43804;BME280;29430;52.924;-2.388;2022-10-17T00:05:06;98169.63;;;13.49;100.00
43804;BME280;29430;52.924;-2.388;2022-10-17T00:09:57;98157.63;;;13.50;100.00
43804;BME280;29430;52.924;-2.388;2022-10-17T00:14:49;98164.69;;;13.51;100.00
43804;BME280;29430;52.924;-2.388;2022-10-17T00:19:42;98155.44;;;13.52;100.00
43804;BME280;29430;52.924;-2.388;2022-10-17T00:24:33;98153.81;;;13.56;100.00
43804;BME280;29430;52.924;-2.388;2022-10-17T00:29:25;98163.59;;;13.57;100.00
43804;BME280;29430;52.924;-2.388;2022-10-17T00:34:17;98157.88;;;13.59;100.00
43804;BME280;29430;52.924;-2.388;2022-10-17T00:39:08;98190.28;;;13.60;100.00
43804;BME280;29430;52.924;-2.388;2022-10-17T00:44:04;98188.13;;;13.63;100.00
43804;BME280;29430;52.924;-2.388;2022-10-17T00:48:58;98187.00;;;13.64;100.00
43804;BME280;29430;52.924;-2.388;2022-10-17T00:53:51;98208.53;;;13.65;100.00
43804;BME280;29430;52.924;-2.388;2022-10-17T00:58:43;98181.00;;;13.67;100.00
43804;BME280;29430;52.924;-2.388;2022-10-17T01:03:34;98208.81;;;13.69;100.00
43804;BME280;29430;52.924;-2.388;2022-10-17T01:08:26;98228.69;;;13.69;100.00
43804;BME280;29430;52.924;-2.388;2022-10-17T01:13:26;98237.69;;;13.70;100.00
43804;BME280;29430;52.924;-2.388;2022-10-17T01:33:25;98255.41;;;13.62;100.00
43804;BME280;29430;52.924;-2.388;2022-10-17T01:38:32;98278.00;;;13.57;100.00
43804;BME280;29430;52.924;-2.388;2022-10-17T01:44:06;98272.31;;;13.54;100.00
43804;BME280;29430;52.924;-2.388;2022-10-17T01:48:51;98295.44;;;13.51;100.00
43804;BME280;29430;52.924;-2.388;2022-10-17T01:54:08;98301.44;;;13.48;100.00
43804;BME280;29430;52.924;-2.388;2022-10-17T01:59:07;98289.47;;;13.44;100.00
43804;BME280;29430;52.924;-2.388;2022-10-17T02:04:02;98303.63;;;13.41;100.00
43804;BME280;29430;52.924;-2.388;2022-10-17T02:08:56;98312.63;;;13.36;100.00
43804;BME280;29430;52.924;-2.388;2022-10-17T02:14:15;98314.22;;;13.37;100.00
43804;BME280;29430;52.924;-2.388;2022-10-17T02:19:26;98299.00;;;13.36;100.00
43804;BME280;29430;52.924;-2.388;2022-10-17T02:29:52;98291.38;;;13.33;100.00
43804;BME280;29430;52.924;-2.388;2022-10-17T02:34:49;98302.00;;;13.35;100.00
43804;BME280;29430;52.924;-2.388;2022-10-17T02:39:44;98302.50;;;13.32;100.00
43804;BME280;29430;52.924;-2.388;2022-10-17T02:44:39;98306.84;;;13.28;100.00
43804;BME280;29430;52.924;-2.388;2022-10-17T02:49:35;98300.88;;;13.25;100.00
43804;BME280;29430;52.924;-2.388;2022-10-17T02:54:38;98330.81;;;13.25;100.00
43804;BME280;29430;52.924;-2.388;2022-10-17T02:59:34;98332.16;;;13.23;100.00
43804;BME280;29430;52.924;-2.388;2022-10-17T03:04:27;98331.63;;;13.21;100.00
43804;BME280;29430;52.924;-2.388;2022-10-17T03:09:18;98318.28;;;13.19;100.00
43804;BME280;29430;52.924;-2.388;2022-10-17T03:14:10;98340.88;;;13.20;100.00
43804;BME280;29430;52.924;-2.388;2022-10-17T03:19:02;98327.78;;;13.17;100.00
43804;BME280;29430;52.924;-2.388;2022-10-17T03:23:54;98332.97;;;13.13;100.00
43804;BME280;29430;52.924;-2.388;2022-10-17T03:28:46;98338.38;;;13.08;100.00
43804;BME280;29430;52.924;-2.388;2022-10-17T03:33:43;98342.22;;;13.07;100.00
43804;BME280;29430;52.924;-2.388;2022-10-17T03:38:35;98357.16;;;13.04;100.00
43804;BME280;29430;52.924;-2.388;2022-10-17T03:43:28;98354.16;;;13.01;100.00
43804;BME280;29430;52.924;-2.388;2022-10-17T03:48:19;98349.53;;;12.96;99.63
43804;BME280;29430;52.924;-2.388;2022-10-17T03:53:11;98354.66;;;12.93;97.83
43804;BME280;29430;52.924;-2.388;2022-10-17T03:58:03;98367.44;;;12.87;97.06
43804;BME280;29430;52.924;-2.388;2022-10-17T04:02:56;98366.59;;;12.81;96.45
43804;BME280;29430;52.924;-2.388;2022-10-17T04:07:48;98372.03;;;12.76;95.75
43804;BME280;29430;52.924;-2.388;2022-10-17T04:12:40;98372.00;;;12.71;95.70
43804;BME280;29430;52.924;-2.388;2022-10-17T04:17:31;98369.25;;;12.66;94.50
43804;BME280;29430;52.924;-2.388;2022-10-17T04:22:28;98378.22;;;12.61;94.58
43804;BME280;29430;52.924;-2.388;2022-10-17T04:27:21;98373.56;;;12.57;94.74
43804;BME280;29430;52.924;-2.388;2022-10-17T04:32:12;98383.31;;;12.52;94.70
43804;BME280;29430;52.924;-2.388;2022-10-17T04:37:04;98404.78;;;12.49;94.46
43804;BME280;29430;52.924;-2.388;2022-10-17T04:41:56;98396.09;;;12.47;94.25
43804;BME280;29430;52.924;-2.388;2022-10-17T04:46:47;98403.66;;;12.45;93.63
43804;BME280;29430;52.924;-2.388;2022-10-17T04:51:39;98419.69;;;12.41;92.94
43804;BME280;29430;52.924;-2.388;2022-10-17T04:56:31;98431.38;;;12.36;92.73
43804;BME280;29430;52.924;-2.388;2022-10-17T05:01:23;98437.06;;;12.35;92.23
43804;BME280;29430;52.924;-2.388;2022-10-17T05:06:17;98435.38;;;12.29;92.21
43804;BME280;29430;52.924;-2.388;2022-10-17T05:11:26;98441.31;;;12.21;92.25
43804;BME280;29430;52.924;-2.388;2022-10-17T05:16:19;98457.88;;;12.19;92.09
43804;BME280;29430;52.924;-2.388;2022-10-17T05:21:10;98465.44;;;12.12;92.55
43804;BME280;29430;52.924;-2.388;2022-10-17T05:26:02;98473.22;;;12.03;93.35
43804;BME280;29430;52.924;-2.388;2022-10-17T05:30:54;98475.66;;;11.99;93.66
43804;BME280;29430;52.924;-2.388;2022-10-17T05:35:46;98489.75;;;11.96;93.74
43804;BME280;29430;52.924;-2.388;2022-10-17T05:40:37;98504.06;;;11.92;94.03
43804;BME280;29430;52.924;-2.388;2022-10-17T05:45:29;98505.09;;;11.86;94.06
43804;BME280;29430;52.924;-2.388;2022-10-17T05:50:21;98514.81;;;11.81;94.20
43804;BME280;29430;52.924;-2.388;2022-10-17T05:55:14;98523.75;;;11.77;94.38
43804;BME280;29430;52.924;-2.388;2022-10-17T06:00:06;98545.44;;;11.72;94.15
43804;BME280;29430;52.924;-2.388;2022-10-17T06:04:58;98551.63;;;11.67;94.45
43804;BME280;29430;52.924;-2.388;2022-10-17T06:09:50;98553.44;;;11.61;94.23
43804;BME280;29430;52.924;-2.388;2022-10-17T06:14:42;98569.44;;;11.58;94.76
43804;BME280;29430;52.924;-2.388;2022-10-17T06:19:33;98575.63;;;11.53;94.96
43804;BME280;29430;52.924;-2.388;2022-10-17T06:24:25;98588.91;;;11.50;94.75
43804;BME280;29430;52.924;-2.388;2022-10-17T06:29:17;98598.59;;;11.45;95.02
43804;BME280;29430;52.924;-2.388;2022-10-17T06:34:09;98620.28;;;11.40;94.83
43804;BME280;29430;52.924;-2.388;2022-10-17T06:39:00;98613.13;;;11.34;94.91
43804;BME280;29430;52.924;-2.388;2022-10-17T06:43:52;98621.75;;;11.31;94.62
43804;BME280;29430;52.924;-2.388;2022-10-17T06:48:44;98643.97;;;11.28;94.69
43804;BME280;29430;52.924;-2.388;2022-10-17T06:53:38;98647.50;;;11.28;94.26
43804;BME280;29430;52.924;-2.388;2022-10-17T06:58:34;98665.44;;;11.29;94.22
43804;BME280;29430;52.924;-2.388;2022-10-17T07:03:28;98677.38;;;11.28;94.29
43804;BME280;29430;52.924;-2.388;2022-10-17T07:08:20;98692.84;;;11.28;94.82
43804;BME280;29430;52.924;-2.388;2022-10-17T07:13:11;98686.31;;;11.29;94.26
43804;BME280;29430;52.924;-2.388;2022-10-17T07:18:04;98712.97;;;11.32;94.32
43804;BME280;29430;52.924;-2.388;2022-10-17T07:22:55;98718.66;;;11.31;94.37
43804;BME280;29430;52.924;-2.388;2022-10-17T07:27:48;98727.03;;;11.29;94.04
43804;BME280;29430;52.924;-2.388;2022-10-17T07:32:41;98735.19;;;11.29;93.84
43804;BME280;29430;52.924;-2.388;2022-10-17T07:37:33;98744.41;;;11.28;93.93
43804;BME280;29430;52.924;-2.388;2022-10-17T07:42:25;98753.63;;;11.27;93.79
43804;BME280;29430;52.924;-2.388;2022-10-17T07:47:18;98758.00;;;11.28;93.19
43804;BME280;29430;52.924;-2.388;2022-10-17T07:52:13;98763.50;;;11.33;92.85
43804;BME280;29430;52.924;-2.388;2022-10-17T07:57:05;98776.25;;;11.50;93.33
43804;BME280;29430;52.924;-2.388;2022-10-17T08:01:57;98784.72;;;12.04;92.33
43804;BME280;29430;52.924;-2.388;2022-10-17T08:06:50;98796.66;;;12.69;88.98
43804;BME280;29430;52.924;-2.388;2022-10-17T08:11:50;98811.53;;;13.33;85.50
43804;BME280;29430;52.924;-2.388;2022-10-17T08:16:42;98810.25;;;13.73;81.62
43804;BME280;29430;52.924;-2.388;2022-10-17T08:21:34;98812.94;;;14.11;79.84
43804;BME280;29430;52.924;-2.388;2022-10-17T08:26:26;98833.16;;;14.63;76.96
43804;BME280;29430;52.924;-2.388;2022-10-17T08:31:18;98844.53;;;15.08;75.56
43804;BME280;29430;52.924;-2.388;2022-10-17T08:36:13;98845.16;;;15.51;73.31
43804;BME280;29430;52.924;-2.388;2022-10-17T08:41:13;98847.38;;;15.90;70.69
43804;BME280;29430;52.924;-2.388;2022-10-17T08:46:06;98859.09;;;16.16;68.65
43804;BME280;29430;52.924;-2.388;2022-10-17T08:51:09;98868.09;;;16.42;67.17
43804;BME280;29430;52.924;-2.388;2022-10-17T08:56:17;98872.13;;;16.65;63.15
43804;BME280;29430;52.924;-2.388;2022-10-17T09:01:40;98873.97;;;16.91;63.63
43804;BME280;29430;52.924;-2.388;2022-10-17T09:06:41;98877.13;;;17.18;61.82
43804;BME280;29430;52.924;-2.388;2022-10-17T09:22:08;98912.56;;;17.54;58.85
43804;BME280;29430;52.924;-2.388;2022-10-17T09:27:02;98912.75;;;17.68;58.82
43804;BME280;29430;52.924;-2.388;2022-10-17T09:32:07;98903.59;;;17.83;57.66
43804;BME280;29430;52.924;-2.388;2022-10-17T09:37:02;98915.06;;;17.96;58.83
43804;BME280;29430;52.924;-2.388;2022-10-17T09:41:55;98924.81;;;18.12;57.44
43804;BME280;29430;52.924;-2.388;2022-10-17T09:51:44;98931.41;;;18.40;55.16
43804;BME280;29430;52.924;-2.388;2022-10-17T09:57:05;98955.06;;;18.66;56.28
43804;BME280;29430;52.924;-2.388;2022-10-17T10:07:05;98977.53;;;19.02;55.14
43804;BME280;29430;52.924;-2.388;2022-10-17T10:12:01;98977.00;;;19.00;53.58
43804;BME280;29430;52.924;-2.388;2022-10-17T10:16:54;98975.78;;;18.82;53.05
43804;BME280;29430;52.924;-2.388;2022-10-17T10:21:55;98985.78;;;18.73;53.39
43804;BME280;29430;52.924;-2.388;2022-10-17T10:26:48;99001.31;;;18.88;54.24
43804;BME280;29430;52.924;-2.388;2022-10-17T10:31:40;99016.78;;;19.08;53.50
43804;BME280;29430;52.924;-2.388;2022-10-17T10:41:46;99022.50;;;19.11;49.24
43804;BME280;29430;52.924;-2.388;2022-10-17T10:46:38;99055.59;;;19.01;49.90
43804;BME280;29430;52.924;-2.388;2022-10-17T10:51:45;99068.66;;;19.14;49.00
43804;BME280;29430;52.924;-2.388;2022-10-17T10:56:52;99076.53;;;18.97;47.66
43804;BME280;29430;52.924;-2.388;2022-10-17T11:07:01;99112.16;;;18.73;49.29
43804;BME280;29430;52.924;-2.388;2022-10-17T11:12:00;99116.03;;;18.67;49.78
43804;BME280;29430;52.924;-2.388;2022-10-17T11:17:07;99096.91;;;18.51;49.28
43804;BME280;29430;52.924;-2.388;2022-10-17T11:22:21;99090.44;;;18.37;50.36
43804;BME280;29430;52.924;-2.388;2022-10-17T11:27:19;99119.31;;;18.29;49.46
43804;BME280;29430;52.924;-2.388;2022-10-17T11:32:25;99110.78;;;18.31;49.24
43804;BME280;29430;52.924;-2.388;2022-10-17T11:37:22;99141.53;;;18.33;49.67
43804;BME280;29430;52.924;-2.388;2022-10-17T11:42:24;99156.06;;;18.38;50.60
43804;BME280;29430;52.924;-2.388;2022-10-17T11:47:42;99174.44;;;18.43;50.28
43804;BME280;29430;52.924;-2.388;2022-10-17T11:53:08;99182.94;;;18.41;49.03
43804;BME280;29430;52.924;-2.388;2022-10-17T12:18:31;99207.59;;;18.52;50.41
43804;BME280;29430;52.924;-2.388;2022-10-17T12:23:30;99197.72;;;18.46;47.54
43804;BME280;29430;52.924;-2.388;2022-10-17T12:33:29;99202.25;;;18.26;49.69
43804;BME280;29430;52.924;-2.388;2022-10-17T12:38:25;99206.13;;;18.20;50.41
43804;BME280;29430;52.924;-2.388;2022-10-17T12:48:09;99217.97;;;18.05;49.68
43804;BME280;29430;52.924;-2.388;2022-10-17T12:53:04;99230.59;;;17.96;48.64
43804;BME280;29430;52.924;-2.388;2022-10-17T12:57:58;99227.31;;;17.83;49.65
43804;BME280;29430;52.924;-2.388;2022-10-17T13:02:54;99234.47;;;17.74;48.49
43804;BME280;29430;52.924;-2.388;2022-10-17T13:07:48;99236.94;;;17.65;48.38
43804;BME280;29430;52.924;-2.388;2022-10-17T13:12:40;99242.19;;;17.57;49.42
43804;BME280;29430;52.924;-2.388;2022-10-17T13:17:32;99252.59;;;17.49;48.75
43804;BME280;29430;52.924;-2.388;2022-10-17T13:22:28;99258.34;;;17.48;49.28
43804;BME280;29430;52.924;-2.388;2022-10-17T13:32:15;99273.44;;;17.45;48.37
43804;BME280;29430;52.924;-2.388;2022-10-17T13:37:10;99269.31;;;17.32;47.53
43804;BME280;29430;52.924;-2.388;2022-10-17T13:42:04;99282.47;;;17.25;48.27
43804;BME280;29430;52.924;-2.388;2022-10-17T13:46:56;99284.94;;;17.22;48.82
43804;BME280;29430;52.924;-2.388;2022-10-17T13:51:50;99296.72;;;17.17;48.10
43804;BME280;29430;52.924;-2.388;2022-10-17T13:56:44;99309.88;;;17.15;48.72
43804;BME280;29430;52.924;-2.388;2022-10-17T14:01:36;99311.22;;;17.07;46.19
43804;BME280;29430;52.924;-2.388;2022-10-17T14:06:29;99333.69;;;17.04;47.88
43804;BME280;29430;52.924;-2.388;2022-10-17T14:16:16;99355.63;;;17.09;47.45
43804;BME280;29430;52.924;-2.388;2022-10-17T14:21:08;99351.75;;;17.05;48.01
43804;BME280;29430;52.924;-2.388;2022-10-17T14:26:22;99365.72;;;17.04;47.07
43804;BME280;29430;52.924;-2.388;2022-10-17T14:36:06;99373.66;;;16.95;45.86
43804;BME280;29430;52.924;-2.388;2022-10-17T14:41:04;99375.00;;;16.87;46.21
43804;BME280;29430;52.924;-2.388;2022-10-17T14:46:16;99381.56;;;16.86;46.74
43804;BME280;29430;52.924;-2.388;2022-10-17T14:56:02;99391.59;;;16.70;47.32
43804;BME280;29430;52.924;-2.388;2022-10-17T15:00:55;99391.03;;;16.68;47.48
43804;BME280;29430;52.924;-2.388;2022-10-17T15:05:48;99390.19;;;16.62;48.45
43804;BME280;29430;52.924;-2.388;2022-10-17T15:10:41;99400.28;;;16.57;48.48
43804;BME280;29430;52.924;-2.388;2022-10-17T15:15:33;99400.00;;;16.53;48.97
43804;BME280;29430;52.924;-2.388;2022-10-17T15:20:27;99406.81;;;16.51;49.38
43804;BME280;29430;52.924;-2.388;2022-10-17T15:25:20;99418.31;;;16.47;49.04
43804;BME280;29430;52.924;-2.388;2022-10-17T15:30:39;99423.22;;;16.45;49.83
43804;BME280;29430;52.924;-2.388;2022-10-17T15:35:30;99425.66;;;16.42;50.69
43804;BME280;29430;52.924;-2.388;2022-10-17T15:40:28;99441.53;;;16.40;51.21
43804;BME280;29430;52.924;-2.388;2022-10-17T15:45:19;99454.91;;;16.36;50.26
43804;BME280;29430;52.924;-2.388;2022-10-17T15:50:14;99459.25;;;16.32;49.76
43804;BME280;29430;52.924;-2.388;2022-10-17T15:55:07;99460.81;;;16.23;48.65
43804;BME280;29430;52.924;-2.388;2022-10-17T15:59:59;99461.00;;;16.11;47.48
43804;BME280;29430;52.924;-2.388;2022-10-17T16:04:51;99468.28;;;16.00;48.13
43804;BME280;29430;52.924;-2.388;2022-10-17T16:09:43;99474.25;;;15.92;48.06
43804;BME280;29430;52.924;-2.388;2022-10-17T16:14:35;99494.69;;;15.84;49.37
43804;BME280;29430;52.924;-2.388;2022-10-17T16:19:27;99494.56;;;15.74;49.44
43804;BME280;29430;52.924;-2.388;2022-10-17T16:24:20;99511.66;;;15.64;49.66
43804;BME280;29430;52.924;-2.388;2022-10-17T16:29:12;99531.22;;;15.51;49.43
43804;BME280;29430;52.924;-2.388;2022-10-17T16:34:04;99534.97;;;15.45;50.73
43804;BME280;29430;52.924;-2.388;2022-10-17T16:38:57;99544.94;;;15.34;50.55
43804;BME280;29430;52.924;-2.388;2022-10-17T16:43:50;99552.22;;;15.28;52.02
43804;BME280;29430;52.924;-2.388;2022-10-17T16:48:43;99572.88;;;15.19;54.09
43804;BME280;29430;52.924;-2.388;2022-10-17T16:53:34;99578.69;;;15.06;55.14
43804;BME280;29430;52.924;-2.388;2022-10-17T16:58:30;99570.84;;;14.92;56.52
43804;BME280;29430;52.924;-2.388;2022-10-17T17:03:22;99555.88;;;14.78;56.97
43804;BME280;29430;52.924;-2.388;2022-10-17T17:08:14;99574.00;;;14.67;57.61
43804;BME280;29430;52.924;-2.388;2022-10-17T17:13:06;99567.75;;;14.55;58.14
43804;BME280;29430;52.924;-2.388;2022-10-17T17:17:58;99583.13;;;14.44;58.81
43804;BME280;29430;52.924;-2.388;2022-10-17T17:22:55;99600.97;;;14.35;59.07
43804;BME280;29430;52.924;-2.388;2022-10-17T17:27:47;99614.34;;;14.19;59.85
43804;BME280;29430;52.924;-2.388;2022-10-17T17:32:39;99632.53;;;14.13;60.23
43804;BME280;29430;52.924;-2.388;2022-10-17T17:37:30;99637.78;;;14.03;60.30
43804;BME280;29430;52.924;-2.388;2022-10-17T17:42:23;99624.16;;;13.91;59.99
43804;BME280;29430;52.924;-2.388;2022-10-17T17:47:14;99630.84;;;13.84;59.70
43804;BME280;29430;52.924;-2.388;2022-10-17T17:52:06;99623.88;;;13.76;59.37
43804;BME280;29430;52.924;-2.388;2022-10-17T17:56:58;99620.09;;;13.65;59.03
43804;BME280;29430;52.924;-2.388;2022-10-17T18:01:49;99646.66;;;13.58;59.50
43804;BME280;29430;52.924;-2.388;2022-10-17T18:06:41;99655.19;;;13.50;59.75
43804;BME280;29430;52.924;-2.388;2022-10-17T18:11:34;99669.53;;;13.45;60.11
43804;BME280;29430;52.924;-2.388;2022-10-17T18:16:27;99676.16;;;13.37;60.97
43804;BME280;29430;52.924;-2.388;2022-10-17T18:21:19;99682.19;;;13.28;62.61
43804;BME280;29430;52.924;-2.388;2022-10-17T18:26:11;99699.13;;;13.18;63.93
43804;BME280;29430;52.924;-2.388;2022-10-17T18:31:13;99727.53;;;13.10;65.11
43804;BME280;29430;52.924;-2.388;2022-10-17T18:36:10;99750.00;;;13.05;65.37
43804;BME280;29430;52.924;-2.388;2022-10-17T18:41:07;99759.13;;;12.99;66.26
43804;BME280;29430;52.924;-2.388;2022-10-17T18:46:14;99762.16;;;12.91;66.46
43804;BME280;29430;52.924;-2.388;2022-10-17T18:51:07;99758.47;;;12.85;67.54
43804;BME280;29430;52.924;-2.388;2022-10-17T18:55:59;99778.81;;;12.83;67.85
43804;BME280;29430;52.924;-2.388;2022-10-17T19:00:51;99777.59;;;12.79;68.38
43804;BME280;29430;52.924;-2.388;2022-10-17T19:05:43;99782.09;;;12.73;68.43
43804;BME280;29430;52.924;-2.388;2022-10-17T19:10:38;99786.34;;;12.69;69.46
43804;BME280;29430;52.924;-2.388;2022-10-17T19:15:30;99796.94;;;12.59;70.12
43804;BME280;29430;52.924;-2.388;2022-10-17T19:20:21;99796.19;;;12.51;70.67
43804;BME280;29430;52.924;-2.388;2022-10-17T19:25:13;99797.13;;;12.45;71.12
43804;BME280;29430;52.924;-2.388;2022-10-17T19:30:06;99781.53;;;12.34;72.44
43804;BME280;29430;52.924;-2.388;2022-10-17T19:34:57;99788.97;;;12.27;73.16
43804;BME280;29430;52.924;-2.388;2022-10-17T19:39:49;99803.03;;;12.24;73.72
43804;BME280;29430;52.924;-2.388;2022-10-17T19:44:41;99805.56;;;12.18;74.35
43804;BME280;29430;52.924;-2.388;2022-10-17T19:49:32;99813.13;;;12.16;74.14
43804;BME280;29430;52.924;-2.388;2022-10-17T19:54:24;99803.75;;;12.12;74.93
43804;BME280;29430;52.924;-2.388;2022-10-17T19:59:17;99825.13;;;12.09;75.09
43804;BME280;29430;52.924;-2.388;2022-10-17T20:04:09;99850.28;;;12.04;74.99
43804;BME280;29430;52.924;-2.388;2022-10-17T20:09:03;99862.41;;;12.02;74.94
43804;BME280;29430;52.924;-2.388;2022-10-17T20:13:55;99868.06;;;12.00;75.21
43804;BME280;29430;52.924;-2.388;2022-10-17T20:18:48;99870.19;;;11.98;75.00
43804;BME280;29430;52.924;-2.388;2022-10-17T20:23:41;99875.47;;;11.93;75.41
43804;BME280;29430;52.924;-2.388;2022-10-17T20:28:33;99872.78;;;11.86;75.81
43804;BME280;29430;52.924;-2.388;2022-10-17T20:33:25;99872.59;;;11.81;76.02
43804;BME280;29430;52.924;-2.388;2022-10-17T20:38:22;99876.06;;;11.70;76.07
43804;BME280;29430;52.924;-2.388;2022-10-17T20:43:13;99884.03;;;11.64;76.84
43804;BME280;29430;52.924;-2.388;2022-10-17T20:48:06;99882.41;;;11.57;76.99
43804;BME280;29430;52.924;-2.388;2022-10-17T20:52:58;99891.66;;;11.49;77.47
43804;BME280;29430;52.924;-2.388;2022-10-17T20:58:10;99897.97;;;11.43;77.95
43804;BME280;29430;52.924;-2.388;2022-10-17T21:03:01;99918.25;;;11.40;77.87
43804;BME280;29430;52.924;-2.388;2022-10-17T21:07:53;99918.28;;;11.34;78.56
43804;BME280;29430;52.924;-2.388;2022-10-17T21:12:45;99924.38;;;11.29;78.14
43804;BME280;29430;52.924;-2.388;2022-10-17T21:17:44;99918.38;;;11.20;79.24
43804;BME280;29430;52.924;-2.388;2022-10-17T21:22:36;99937.19;;;11.15;79.61
43804;BME280;29430;52.924;-2.388;2022-10-17T21:27:28;99947.03;;;11.09;79.43
43804;BME280;29430;52.924;-2.388;2022-10-17T21:32:20;99961.03;;;11.06;79.54
43804;BME280;29430;52.924;-2.388;2022-10-17T21:37:32;99967.94;;;11.02;80.08
43804;BME280;29430;52.924;-2.388;2022-10-17T21:42:23;99969.41;;;10.98;80.08
43804;BME280;29430;52.924;-2.388;2022-10-17T21:47:15;99974.69;;;10.86;79.71
43804;BME280;29430;52.924;-2.388;2022-10-17T21:52:07;99993.66;;;10.80;79.58
43804;BME280;29430;52.924;-2.388;2022-10-17T21:56:59;99992.25;;;10.64;79.81
43804;BME280;29430;52.924;-2.388;2022-10-17T22:01:51;100000.81;;;10.54;80.04
43804;BME280;29430;52.924;-2.388;2022-10-17T22:06:44;100003.34;;;10.49;80.02
43804;BME280;29430;52.924;-2.388;2022-10-17T22:11:36;100009.38;;;10.37;80.03
43804;BME280;29430;52.924;-2.388;2022-10-17T22:16:28;100002.88;;;10.25;79.22
43804;BME280;29430;52.924;-2.388;2022-10-17T22:21:20;99999.38;;;10.18;80.29
43804;BME280;29430;52.924;-2.388;2022-10-17T22:26:13;100006.84;;;10.16;81.31
43804;BME280;29430;52.924;-2.388;2022-10-17T22:31:05;100014.16;;;10.15;81.08
43804;BME280;29430;52.924;-2.388;2022-10-17T22:35:57;100021.03;;;10.04;81.83
43804;BME280;29430;52.924;-2.388;2022-10-17T22:40:49;100024.78;;;9.90;81.95
43804;BME280;29430;52.924;-2.388;2022-10-17T22:45:41;100035.38;;;9.78;81.82
43804;BME280;29430;52.924;-2.388;2022-10-17T22:50:33;100037.66;;;9.75;81.55
43804;BME280;29430;52.924;-2.388;2022-10-17T22:55:25;100045.31;;;9.64;82.32
43804;BME280;29430;52.924;-2.388;2022-10-17T23:00:17;100057.38;;;9.55;82.81
43804;BME280;29430;52.924;-2.388;2022-10-17T23:05:09;100057.97;;;9.50;82.55
43804;BME280;29430;52.924;-2.388;2022-10-17T23:10:01;100045.06;;;9.46;82.81
43804;BME280;29430;52.924;-2.388;2022-10-17T23:14:53;100039.63;;;9.39;83.19
43804;BME280;29430;52.924;-2.388;2022-10-17T23:19:45;100043.34;;;9.38;83.69
43804;BME280;29430;52.924;-2.388;2022-10-17T23:24:36;100055.63;;;9.34;84.14
43804;BME280;29430;52.924;-2.388;2022-10-17T23:29:32;100057.69;;;9.32;85.31
43804;BME280;29430;52.924;-2.388;2022-10-17T23:34:24;100055.19;;;9.30;85.06
43804;BME280;29430;52.924;-2.388;2022-10-17T23:39:16;100058.72;;;9.31;85.35
43804;BME280;29430;52.924;-2.388;2022-10-17T23:44:09;100055.19;;;9.30;85.92
43804;BME280;29430;52.924;-2.388;2022-10-17T23:49:02;100059.53;;;9.25;86.32
43804;BME280;29430;52.924;-2.388;2022-10-17T23:53:54;100070.56;;;9.23;86.83
43804;BME280;29430;52.924;-2.388;2022-10-17T23:58:46;100076.63;;;9.25;88.32
